createdAt,value
2018-03-26T00:00:51.725Z,70.30
2018-03-26T00:03:19.238Z,69.70
2018-03-26T00:05:47.469Z,69.20
2018-03-26T00:08:14.928Z,69.20
2018-03-26T00:10:42.992Z,69.10
2018-03-26T00:13:10.480Z,69.20
2018-03-26T00:15:38.701Z,69.20
2018-03-26T00:18:06.186Z,69.10
2018-03-26T00:20:34.432Z,70.00
2018-03-26T00:23:01.917Z,70.70
2018-03-26T00:25:29.361Z,70.10
2018-03-26T00:27:56.834Z,70.30
2018-03-26T00:30:24.300Z,69.60
2018-03-26T00:32:51.782Z,71.00
2018-03-26T00:35:20.024Z,71.10
2018-03-26T00:37:47.512Z,71.10
2018-03-26T00:40:15.754Z,71.30
2018-03-26T00:42:43.201Z,71.30
2018-03-26T00:45:10.660Z,72.00
2018-03-26T00:47:38.121Z,70.80
2018-03-26T00:50:05.596Z,70.90
2018-03-26T00:52:33.073Z,73.50
2018-03-26T00:55:01.288Z,72.50
2018-03-26T00:57:28.757Z,72.40
2018-03-26T00:59:56.233Z,72.90
2018-03-26T01:02:25.598Z,73.30
2018-03-26T01:04:53.077Z,73.30
2018-03-26T01:07:20.566Z,73.00
2018-03-26T01:09:48.032Z,73.30
2018-03-26T01:12:16.281Z,73.90
2018-03-26T01:14:43.748Z,73.90
2018-03-26T01:17:11.213Z,74.50
2018-03-26T01:19:39.434Z,73.70
2018-03-26T01:22:06.897Z,73.70
2018-03-26T01:24:35.124Z,73.40
2018-03-26T01:27:03.374Z,73.70
2018-03-26T01:29:30.837Z,73.60
2018-03-26T01:31:58.293Z,73.90
2018-03-26T01:34:25.766Z,73.90
2018-03-26T01:36:53.237Z,75.20
2018-03-26T01:39:21.478Z,75.10
2018-03-26T01:41:48.932Z,75.00
2018-03-26T01:44:16.389Z,74.40
2018-03-26T01:46:43.882Z,75.10
2018-03-26T01:49:12.116Z,75.30
2018-03-26T01:51:39.569Z,75.30
2018-03-26T01:54:07.045Z,76.20
2018-03-26T01:56:34.512Z,74.80
2018-03-26T01:59:02.731Z,75.80
2018-03-26T02:01:30.205Z,75.70
2018-03-26T02:03:57.674Z,76.90
2018-03-26T02:06:25.129Z,77.20
2018-03-26T02:08:52.581Z,77.10
2018-03-26T02:11:20.070Z,76.90
2018-03-26T02:13:48.282Z,77.40
2018-03-26T02:16:15.773Z,77.30
2018-03-26T02:18:43.249Z,77.40
2018-03-26T02:21:10.857Z,78.00
2018-03-26T02:23:38.305Z,78.20
2018-03-26T02:26:05.777Z,78.50
2018-03-26T02:28:33.230Z,78.20
2018-03-26T02:31:00.685Z,78.90
2018-03-26T02:33:28.145Z,79.50
2018-03-26T02:35:55.645Z,79.90
2018-03-26T02:38:23.102Z,80.30
2018-03-26T02:40:50.550Z,83.30
2018-03-26T02:43:18.009Z,84.90
2018-03-26T02:45:45.457Z,86.00
2018-03-26T02:48:12.964Z,86.90
2018-03-26T02:50:40.480Z,87.50
2018-03-26T02:53:07.929Z,88.30
2018-03-26T02:55:35.413Z,88.50
2018-03-26T02:58:03.621Z,88.40
2018-03-26T03:00:31.100Z,88.30
2018-03-26T03:02:58.575Z,87.90
2018-03-26T03:05:26.811Z,88.40
2018-03-26T03:07:54.291Z,88.30
2018-03-26T03:10:21.784Z,89.40
2018-03-26T03:12:49.255Z,90.00
2018-03-26T03:15:17.476Z,89.20
2018-03-26T03:17:44.924Z,89.90
2018-03-26T03:20:12.391Z,90.00
2018-03-26T03:22:39.848Z,90.50
2018-03-26T03:25:07.315Z,90.70
2018-03-26T03:27:34.793Z,91.20
2018-03-26T03:30:02.249Z,91.40
2018-03-26T03:32:29.709Z,91.30
2018-03-26T03:34:57.195Z,91.30
2018-03-26T03:37:24.648Z,91.90
2018-03-26T03:39:52.138Z,92.30
2018-03-26T03:42:19.591Z,92.50
2018-03-26T03:44:47.065Z,92.50
2018-03-26T03:47:16.069Z,93.50
2018-03-26T03:49:44.273Z,92.90
2018-03-26T03:52:12.533Z,93.10
2018-03-26T03:54:40.019Z,93.10
2018-03-26T03:57:08.253Z,93.60
2018-03-26T03:59:35.710Z,93.50
2018-03-26T04:02:03.155Z,93.70
2018-03-26T04:04:30.637Z,93.70
2018-03-26T04:06:58.084Z,93.90
2018-03-26T04:09:25.540Z,93.90
2018-03-26T04:11:52.996Z,93.90
2018-03-26T04:14:20.473Z,94.00
2018-03-26T04:16:48.687Z,94.10
2018-03-26T04:19:16.177Z,94.10
2018-03-26T04:21:43.626Z,94.10
2018-03-26T04:24:11.082Z,93.90
2018-03-26T04:26:38.536Z,94.10
2018-03-26T04:29:06.784Z,94.40
2018-03-26T04:31:34.248Z,94.40
2018-03-26T04:34:01.694Z,94.40
2018-03-26T04:36:29.158Z,94.70
2018-03-26T04:38:56.623Z,94.70
2018-03-26T04:41:24.072Z,94.60
2018-03-26T04:43:51.556Z,94.60
2018-03-26T04:46:19.022Z,94.70
2018-03-26T04:48:46.513Z,94.80
2018-03-26T04:51:14.730Z,95.20
2018-03-26T04:53:42.219Z,95.20
2018-03-26T04:56:09.677Z,95.00
2018-03-26T04:58:38.937Z,95.40
2018-03-26T05:01:06.385Z,95.20
2018-03-26T05:03:36.763Z,95.30
2018-03-26T05:06:04.241Z,95.50
2018-03-26T05:08:32.453Z,95.80
2018-03-26T05:10:59.916Z,95.80
2018-03-26T05:13:27.401Z,95.80
2018-03-26T05:15:54.850Z,95.80
2018-03-26T05:18:22.294Z,95.50
2018-03-26T05:20:49.770Z,95.50
2018-03-26T05:23:17.242Z,95.50
2018-03-26T05:25:45.492Z,96.20
2018-03-26T05:28:12.960Z,95.70
2018-03-26T05:30:41.189Z,95.70
2018-03-26T05:33:08.633Z,95.70
2018-03-26T05:35:36.110Z,95.70
2018-03-26T05:38:03.562Z,95.80
2018-03-26T05:40:31.058Z,95.80
2018-03-26T05:42:58.782Z,96.00
2018-03-26T05:45:26.249Z,95.90
2018-03-26T05:47:53.791Z,95.80
2018-03-26T05:50:21.239Z,95.90
2018-03-26T05:52:48.725Z,95.60
2018-03-26T05:55:16.178Z,95.60
2018-03-26T05:57:43.616Z,95.50
2018-03-26T06:00:11.688Z,95.40
2018-03-26T06:02:39.143Z,95.20
2018-03-26T06:05:06.641Z,95.10
2018-03-26T06:07:34.109Z,95.40
2018-03-26T06:10:01.573Z,95.30
2018-03-26T06:12:29.020Z,95.30
2018-03-26T06:14:56.489Z,95.30
2018-03-26T06:17:23.973Z,95.40
2018-03-26T06:19:51.470Z,95.10
2018-03-26T06:22:18.933Z,95.10
2018-03-26T06:24:46.381Z,95.00
2018-03-26T06:27:13.841Z,95.00
2018-03-26T06:29:41.292Z,95.00
2018-03-26T06:32:08.754Z,94.90
2018-03-26T06:34:36.269Z,95.00
2018-03-26T06:40:05.622Z,95.00
2018-03-26T06:42:33.064Z,94.90
2018-03-26T06:45:00.523Z,94.60
2018-03-26T06:47:27.996Z,94.50
2018-03-26T06:49:55.467Z,94.50
2018-03-26T06:52:22.912Z,94.60
2018-03-26T06:54:50.365Z,94.80
2018-03-26T06:57:17.853Z,94.80
2018-03-26T06:59:45.316Z,94.80
2018-03-26T07:02:12.768Z,94.80
2018-03-26T07:04:40.252Z,94.80
2018-03-26T07:07:08.485Z,94.60
2018-03-26T07:09:35.998Z,94.60
2018-03-26T07:12:03.436Z,94.80
2018-03-26T07:14:31.676Z,95.10
2018-03-26T07:16:59.153Z,95.10
2018-03-26T07:19:27.381Z,95.20
2018-03-26T07:21:54.841Z,95.20
2018-03-26T07:24:22.341Z,95.20
2018-03-26T07:26:49.823Z,95.40
2018-03-26T07:29:17.309Z,95.20
2018-03-26T07:31:44.762Z,95.50
2018-03-26T07:34:12.208Z,95.10
2018-03-26T07:36:39.673Z,95.10
2018-03-26T07:39:07.145Z,94.70
2018-03-26T07:41:34.678Z,94.60
2018-03-26T07:44:02.144Z,94.30
2018-03-26T07:46:29.589Z,93.40
2018-03-26T07:48:57.105Z,92.50
2018-03-26T07:51:24.609Z,92.10
2018-03-26T07:53:52.108Z,90.70
2018-03-26T07:56:19.608Z,90.10
2018-03-26T07:58:47.080Z,89.60
2018-03-26T08:01:14.556Z,90.10
2018-03-26T08:03:42.026Z,90.80
2018-03-26T08:06:09.485Z,90.20
2018-03-26T08:08:36.961Z,89.20
2018-03-26T08:11:04.442Z,86.30
2018-03-26T08:13:32.657Z,82.90
2018-03-26T08:16:00.122Z,82.80
2018-03-26T08:18:27.602Z,84.90
2018-03-26T08:20:56.446Z,87.20
2018-03-26T08:23:23.940Z,85.70
2018-03-26T08:25:51.413Z,85.30
2018-03-26T08:28:18.888Z,85.80
2018-03-26T08:30:47.129Z,88.00
2018-03-26T08:33:14.579Z,87.90
2018-03-26T08:35:42.033Z,87.40
2018-03-26T08:38:09.510Z,87.40
2018-03-26T08:40:36.985Z,88.80
2018-03-26T08:43:05.238Z,90.00
2018-03-26T08:45:32.747Z,89.80
2018-03-26T08:48:00.236Z,90.00
2018-03-26T08:50:27.716Z,90.10
2018-03-26T08:52:58.509Z,89.70
2018-03-26T08:55:26.023Z,89.60
2018-03-26T08:57:54.290Z,88.40
2018-03-26T09:00:22.610Z,87.00
2018-03-26T09:02:50.169Z,87.00
2018-03-26T09:05:21.080Z,84.50
2018-03-26T09:07:49.338Z,83.00
2018-03-26T09:10:17.576Z,84.60
2018-03-26T09:12:45.047Z,83.60
2018-03-26T09:15:12.541Z,85.00
2018-03-26T09:17:40.756Z,85.10
2018-03-26T09:20:08.215Z,85.00
2018-03-26T09:22:35.690Z,84.20
2018-03-26T09:25:03.177Z,82.10
2018-03-26T09:27:31.420Z,76.00
2018-03-26T09:29:59.111Z,75.20
2018-03-26T09:32:26.567Z,73.30
2018-03-26T09:34:54.022Z,72.60
2018-03-26T09:37:21.496Z,73.60
2018-03-26T09:39:49.747Z,70.20
2018-03-26T09:42:17.255Z,70.10
2018-03-26T09:44:44.727Z,68.30
2018-03-26T09:47:12.200Z,63.90
2018-03-26T09:49:40.452Z,62.10
2018-03-26T09:52:07.929Z,61.90
2018-03-26T09:54:35.443Z,62.00
2018-03-26T09:57:02.929Z,60.50
2018-03-26T09:59:30.414Z,61.60
2018-03-26T10:01:57.889Z,63.10
2018-03-26T10:04:25.420Z,63.40
2018-03-26T10:06:52.975Z,64.60
2018-03-26T10:09:20.435Z,64.80
2018-03-26T10:11:47.905Z,66.30
2018-03-26T10:14:15.375Z,65.00
2018-03-26T10:16:42.837Z,63.00
2018-03-26T10:19:11.073Z,59.10
2018-03-26T10:21:38.588Z,59.60
2018-03-26T10:24:06.080Z,59.80
2018-03-26T10:26:33.544Z,61.90
2018-03-26T10:29:00.994Z,60.30
2018-03-26T10:31:28.469Z,59.10
2018-03-26T10:33:55.952Z,56.10
2018-03-26T10:36:24.211Z,56.00
2018-03-26T10:38:51.689Z,55.40
2018-03-26T10:41:19.160Z,57.40
2018-03-26T10:43:46.643Z,59.10
2018-03-26T10:46:14.113Z,60.60
2018-03-26T10:48:41.574Z,59.40
2018-03-26T10:51:09.058Z,55.90
2018-03-26T10:53:36.507Z,56.00
2018-03-26T10:56:03.977Z,55.20
2018-03-26T10:58:31.482Z,53.40
2018-03-26T11:00:58.927Z,52.10
2018-03-26T11:03:26.377Z,49.80
2018-03-26T11:05:53.834Z,52.40
2018-03-26T11:08:21.277Z,52.80
2018-03-26T11:10:49.563Z,49.70
2018-03-26T11:13:17.023Z,49.70
2018-03-26T11:15:44.486Z,48.00
2018-03-26T11:18:11.965Z,44.30
2018-03-26T11:20:39.437Z,43.60
2018-03-26T11:23:06.920Z,45.50
2018-03-26T11:25:34.396Z,46.10
2018-03-26T11:28:01.932Z,46.00
2018-03-26T11:30:29.443Z,47.20
2018-03-26T11:32:56.979Z,47.90
2018-03-26T11:35:24.544Z,48.80
2018-03-26T11:37:52.120Z,46.80
2018-03-26T11:40:19.718Z,49.20
2018-03-26T11:42:47.255Z,49.20
2018-03-26T11:45:14.787Z,47.90
2018-03-26T11:47:42.378Z,47.00
2018-03-26T11:50:09.931Z,46.60
2018-03-26T11:52:37.485Z,48.80
2018-03-26T11:55:05.053Z,49.80
2018-03-26T11:57:32.648Z,50.70
2018-03-26T12:00:00.964Z,49.50
2018-03-26T12:02:28.486Z,49.40
2018-03-26T12:04:56.745Z,45.10
2018-03-26T12:07:24.215Z,45.00
2018-03-26T12:09:51.665Z,47.20
2018-03-26T12:12:19.121Z,48.50
2018-03-26T12:14:46.585Z,48.20
2018-03-26T12:17:14.056Z,49.70
2018-03-26T12:22:48.462Z,43.50
2018-03-26T12:25:17.796Z,43.50
2018-03-26T12:27:57.063Z,44.00
2018-03-26T12:30:25.354Z,46.60
2018-03-26T12:32:53.566Z,46.60
2018-03-26T12:35:33.550Z,43.80
2018-03-26T12:38:01.013Z,44.40
2018-03-26T12:40:40.729Z,46.60
2018-03-26T12:43:08.189Z,46.80
2018-03-26T12:45:48.220Z,46.20
2018-03-26T12:48:15.673Z,46.10
2018-03-26T12:50:54.843Z,46.30
2018-03-26T12:53:22.289Z,49.10
2018-03-26T12:55:49.724Z,49.20
2018-03-26T12:58:29.942Z,51.00
2018-03-26T13:01:09.341Z,51.00
2018-03-26T13:03:36.793Z,50.00
2018-03-26T13:06:04.279Z,49.90
2018-03-26T13:08:31.746Z,51.10
2018-03-26T13:10:59.274Z,49.90
2018-03-26T13:13:26.734Z,49.50
2018-03-26T13:15:54.177Z,49.70
2018-03-26T13:18:21.628Z,51.40
2018-03-26T13:20:49.909Z,50.80
2018-03-26T13:23:17.386Z,50.70
2018-03-26T13:25:44.885Z,51.20
2018-03-26T13:28:12.375Z,51.90
2018-03-26T13:30:40.600Z,53.60
2018-03-26T13:33:08.052Z,53.40
2018-03-26T13:35:35.522Z,54.40
2018-03-26T13:38:02.975Z,55.10
2018-03-26T13:40:30.456Z,52.70
2018-03-26T13:42:57.965Z,51.90
2018-03-26T13:45:25.499Z,49.30
2018-03-26T13:47:53.783Z,51.10
2018-03-26T13:50:21.266Z,51.00
2018-03-26T13:52:49.520Z,50.40
2018-03-26T13:55:17.008Z,50.10
2018-03-26T13:57:44.478Z,51.70
2018-03-26T14:00:11.960Z,51.30
2018-03-26T14:02:40.206Z,47.40
2018-03-26T14:05:07.667Z,47.30
2018-03-26T14:07:35.134Z,48.70
2018-03-26T14:10:14.368Z,48.50
2018-03-26T14:12:53.711Z,49.20
2018-03-26T14:15:33.210Z,49.80
2018-03-26T14:18:00.727Z,49.60
2018-03-26T14:20:28.953Z,51.90
2018-03-26T14:22:56.426Z,51.80
2018-03-26T14:25:23.896Z,53.00
2018-03-26T14:27:51.377Z,53.50
2018-03-26T14:30:19.602Z,50.70
2018-03-26T14:32:47.074Z,50.70
2018-03-26T14:38:28.144Z,52.40
2018-03-26T14:40:55.588Z,51.30
2018-03-26T14:43:23.051Z,50.30
2018-03-26T14:45:50.537Z,50.50
2018-03-26T14:48:17.988Z,50.30
2018-03-26T14:50:45.429Z,46.30
2018-03-26T14:53:12.885Z,47.50
2018-03-26T14:55:40.345Z,44.80
2018-03-26T14:58:07.811Z,47.20
2018-03-26T15:00:35.274Z,47.70
2018-03-26T15:03:02.741Z,45.30
2018-03-26T15:05:30.184Z,45.20
2018-03-26T15:07:57.664Z,43.50
2018-03-26T15:10:25.905Z,44.40
2018-03-26T15:12:53.357Z,43.80
2018-03-26T15:15:20.831Z,43.70
2018-03-26T15:17:48.274Z,46.20
2018-03-26T15:20:15.753Z,47.60
2018-03-26T15:22:43.224Z,47.80
2018-03-26T15:25:11.450Z,47.90
2018-03-26T15:27:38.899Z,47.10
2018-03-26T15:30:06.363Z,46.40
2018-03-26T15:32:33.809Z,46.80
2018-03-26T15:35:01.321Z,48.30
2018-03-26T15:37:29.573Z,45.50
2018-03-26T15:39:57.008Z,45.10
2018-03-26T15:42:24.469Z,46.60
2018-03-26T15:44:52.419Z,47.60
2018-03-26T15:47:19.891Z,47.60
2018-03-26T15:49:47.363Z,47.20
2018-03-26T15:52:14.830Z,46.60
2018-03-26T15:54:42.289Z,45.90
2018-03-26T15:57:09.793Z,45.50
2018-03-26T15:59:37.245Z,45.20
2018-03-26T16:02:04.222Z,45.90
2018-03-26T16:04:31.688Z,47.20
2018-03-26T16:06:59.150Z,46.60
2018-03-26T16:09:26.636Z,48.00
2018-03-26T16:11:54.098Z,47.90
2018-03-26T16:14:22.352Z,48.10
2018-03-26T16:16:49.866Z,48.10
2018-03-26T16:19:17.353Z,46.70
2018-03-26T16:21:44.931Z,47.50
2018-03-26T16:24:13.245Z,47.90
2018-03-26T16:26:40.759Z,47.90
2018-03-26T16:29:08.204Z,47.40
2018-03-26T16:31:35.690Z,48.10
2018-03-26T16:34:03.153Z,46.90
2018-03-26T16:36:31.404Z,46.80
2018-03-26T16:38:58.903Z,46.70
2018-03-26T16:41:38.363Z,46.30
2018-03-26T16:44:05.852Z,46.80
2018-03-26T16:46:33.338Z,47.40
2018-03-26T16:49:00.851Z,46.90
2018-03-26T16:51:28.494Z,47.80
2018-03-26T16:53:56.006Z,49.00
2018-03-26T16:56:23.479Z,49.50
2018-03-26T16:58:51.734Z,50.00
2018-03-26T17:01:19.264Z,49.90
2018-03-26T17:03:46.772Z,50.90
2018-03-26T17:06:15.198Z,51.50
2018-03-26T17:08:42.702Z,50.90
2018-03-26T17:11:12.081Z,51.00
2018-03-26T17:13:40.393Z,51.80
2018-03-26T17:16:07.923Z,51.80
2018-03-26T17:18:35.454Z,50.90
2018-03-26T17:21:02.935Z,50.40
2018-03-26T17:23:30.439Z,51.40
2018-03-26T17:25:58.793Z,52.20
2018-03-26T17:28:27.038Z,54.30
2018-03-26T17:30:54.531Z,54.30
2018-03-26T17:33:22.770Z,55.00
2018-03-26T17:35:50.284Z,55.00
2018-03-26T17:38:17.789Z,55.00
2018-03-26T17:40:47.530Z,55.90
2018-03-26T17:43:15.791Z,56.00
2018-03-26T17:45:44.704Z,57.30
2018-03-26T17:48:13.518Z,57.20
2018-03-26T17:50:41.990Z,57.40
2018-03-26T17:53:09.477Z,57.60
2018-03-26T17:55:37.640Z,57.40
2018-03-26T17:58:05.186Z,58.50
2018-03-26T18:00:32.679Z,59.10
2018-03-26T18:03:00.189Z,59.00
2018-03-26T18:05:27.713Z,59.70
2018-03-26T18:07:56.029Z,59.40
2018-03-26T18:10:23.951Z,59.20
2018-03-26T18:12:51.526Z,58.80
2018-03-26T18:15:20.494Z,59.50
2018-03-26T18:17:47.990Z,59.50
2018-03-26T18:20:16.884Z,59.40
2018-03-26T18:22:45.195Z,59.60
2018-03-26T18:25:12.734Z,59.70
2018-03-26T18:27:41.600Z,59.60
2018-03-26T18:30:09.836Z,59.50
2018-03-26T18:32:37.366Z,60.20
2018-03-26T18:35:04.854Z,60.00
2018-03-26T18:37:32.437Z,62.00
2018-03-26T18:40:02.802Z,62.60
2018-03-26T18:42:31.184Z,60.80
2018-03-26T18:44:59.285Z,60.10
2018-03-26T18:47:27.412Z,58.80
2018-03-26T18:49:55.659Z,59.60
2018-03-26T18:52:25.196Z,60.60
2018-03-26T18:54:53.063Z,60.50
2018-03-26T18:57:20.620Z,58.70
2018-03-26T18:59:48.168Z,58.80
2018-03-26T19:02:16.499Z,59.80
2018-03-26T19:04:46.755Z,60.10
2018-03-26T19:07:15.907Z,60.00
2018-03-26T19:09:44.883Z,59.30
2018-03-26T19:12:14.005Z,63.70
2018-03-26T19:14:41.836Z,64.30
2018-03-26T19:17:09.366Z,64.10
2018-03-26T19:19:38.420Z,59.60
2018-03-26T19:22:06.845Z,59.70
2018-03-26T19:24:35.361Z,59.30
2018-03-26T19:27:03.706Z,60.80
2018-03-26T19:29:31.258Z,58.80
2018-03-26T19:31:59.670Z,60.50
2018-03-26T19:34:27.175Z,58.80
2018-03-26T19:37:00.741Z,59.70
2018-03-26T19:39:28.263Z,59.30
2018-03-26T19:41:56.532Z,60.50
2018-03-26T19:44:24.060Z,59.00
2018-03-26T19:46:53.927Z,59.40
2018-03-26T19:49:22.802Z,60.60
2018-03-26T19:51:50.351Z,63.60
2018-03-26T19:54:17.877Z,61.90
2018-03-26T19:56:47.623Z,57.00
2018-03-26T19:59:15.412Z,58.10
2018-03-26T20:01:44.690Z,56.30
2018-03-26T20:04:13.124Z,58.30
2018-03-26T20:06:46.035Z,58.40
2018-03-26T20:09:17.907Z,58.90
2018-03-26T20:11:45.389Z,58.80
2018-03-26T20:14:14.356Z,59.10
2018-03-26T20:16:41.878Z,61.50
2018-03-26T20:19:10.126Z,62.50
2018-03-26T20:21:41.659Z,60.80
2018-03-26T20:24:09.166Z,60.70
2018-03-26T20:26:39.980Z,62.10
2018-03-26T20:29:08.416Z,61.50
2018-03-26T20:31:35.929Z,60.20
2018-03-26T20:34:03.500Z,61.60
2018-03-26T20:36:33.108Z,62.10
2018-03-26T20:39:02.388Z,62.90
2018-03-26T20:41:33.966Z,62.90
2018-03-26T20:44:03.984Z,63.60
2018-03-26T20:46:35.451Z,62.80
2018-03-26T20:49:04.621Z,63.20
2018-03-26T20:51:33.055Z,63.20
2018-03-26T20:54:01.495Z,63.50
2018-03-26T20:56:30.629Z,63.00
2018-03-26T20:58:59.210Z,62.90
2018-03-26T21:01:27.090Z,63.60
2018-03-26T21:03:55.518Z,65.30
2018-03-26T21:06:25.681Z,66.00
2018-03-26T21:08:53.905Z,65.90
2018-03-26T21:11:21.400Z,67.40
2018-03-26T21:13:48.919Z,67.60
2018-03-26T21:16:16.425Z,67.80
2018-03-26T21:18:44.547Z,68.30
2018-03-26T21:21:13.591Z,66.90
2018-03-26T21:23:41.563Z,68.50
2018-03-26T21:26:10.067Z,67.90
2018-03-26T21:28:37.574Z,68.30
2018-03-26T21:31:05.874Z,69.30
2018-03-26T21:33:34.483Z,69.30
2018-03-26T21:36:02.401Z,69.80
2018-03-26T21:38:31.035Z,70.80
2018-03-26T21:41:00.189Z,71.50
2018-03-26T21:43:27.697Z,71.40
2018-03-26T21:45:55.968Z,72.40
2018-03-26T21:48:23.486Z,72.80
2018-03-26T21:50:50.984Z,72.60
2018-03-26T21:53:19.063Z,73.80
2018-03-26T21:55:46.581Z,77.40
2018-03-26T21:58:14.126Z,76.40
2018-03-26T22:00:41.643Z,80.60
2018-03-26T22:03:09.134Z,79.90
2018-03-26T22:05:37.782Z,76.70
2018-03-26T22:08:06.110Z,76.60
2018-03-26T22:10:33.607Z,76.50
2018-03-26T22:13:01.121Z,80.50
2018-03-26T22:15:28.615Z,78.60
2018-03-26T22:17:56.103Z,78.30
2018-03-26T22:20:23.577Z,78.10
2018-03-26T22:22:51.820Z,78.30
2018-03-26T22:25:19.292Z,78.20
2018-03-26T22:27:46.755Z,79.00
2018-03-26T22:30:14.582Z,78.30
2018-03-26T22:32:42.056Z,80.00
2018-03-26T22:35:09.521Z,79.90
2018-03-26T22:37:37.013Z,80.50
2018-03-26T22:40:04.446Z,80.50
2018-03-26T22:42:32.694Z,82.20
2018-03-26T22:45:00.149Z,81.30
2018-03-26T22:47:27.622Z,81.20
2018-03-26T22:49:55.080Z,81.60
2018-03-26T22:52:22.549Z,82.10
2018-03-26T22:54:50.778Z,82.90
2018-03-26T22:57:18.247Z,82.80
2018-03-26T22:59:45.726Z,83.50
2018-03-26T23:02:13.179Z,84.00
2018-03-26T23:04:40.628Z,83.90
2018-03-26T23:07:08.842Z,84.80
2018-03-26T23:09:37.084Z,84.60
2018-03-26T23:12:04.553Z,84.50
2018-03-26T23:14:31.997Z,84.70
2018-03-26T23:16:59.481Z,85.60
2018-03-26T23:19:27.716Z,85.20
2018-03-26T23:21:55.186Z,85.10
2018-03-26T23:24:22.677Z,84.60
2018-03-26T23:26:50.905Z,84.40
2018-03-26T23:29:18.371Z,84.20
2018-03-26T23:31:45.849Z,85.00
2018-03-26T23:34:14.066Z,85.20
2018-03-26T23:36:41.533Z,84.70
2018-03-26T23:39:08.980Z,85.10
2018-03-26T23:41:36.458Z,84.10
2018-03-26T23:44:03.932Z,84.30
2018-03-26T23:46:31.399Z,84.30
2018-03-26T23:48:58.870Z,84.80
2018-03-26T23:51:27.092Z,84.60
2018-03-26T23:53:54.559Z,84.50
2018-03-26T23:56:22.010Z,84.60
2018-03-26T23:58:49.474Z,85.30
